Time;durP1;ratioP1;P1;durP2;ratioP2;P2;SDS_P1;SDS_P2;PMS_P1;PMS_P2;Temp;Humidity;BMP_temperature;BMP_pressure;BME280_temperature;BME280_humidity;BME280_pressure;Samples;Min_cycle;Max_cycle;Signal;HPM_P1;HPM_P2
2022/12/12 00:00:33;;;;;;;24.17;12.07;;;-0.80;69.70;;;;;;4923943;28;115129;-81
2022/12/12 00:03:00;;;;;;;26.70;11.30;;;-0.80;69.60;;;;;;4923748;28;116097;-81
2022/12/12 00:05:28;;;;;;;26.30;11.25;;;-0.80;69.60;;;;;;4925748;28;114762;-80
2022/12/12 00:07:56;;;;;;;23.00;11.43;;;-0.80;69.60;;;;;;4927179;28;114422;-80
2022/12/12 00:10:23;;;;;;;24.35;10.88;;;-0.80;69.70;;;;;;4924823;28;115174;-80
2022/12/12 00:12:50;;;;;;;26.13;12.05;;;-0.80;69.80;;;;;;4939316;28;115702;-80
2022/12/12 00:15:18;;;;;;;25.83;11.75;;;-0.80;69.90;;;;;;4924163;28;114522;-80
2022/12/12 00:17:45;;;;;;;26.30;12.10;;;-0.80;69.80;;;;;;4932444;28;114383;-81
2022/12/12 00:20:12;;;;;;;25.35;11.30;;;-0.80;69.80;;;;;;4942782;28;115201;-80
2022/12/12 00:22:39;;;;;;;25.05;12.05;;;-0.70;69.80;;;;;;4924729;28;115449;-80
2022/12/12 00:25:07;;;;;;;23.10;10.60;;;-0.70;69.70;;;;;;4925841;28;114828;-81
2022/12/12 00:27:34;;;;;;;20.55;11.25;;;-0.80;69.60;;;;;;4924630;28;115950;-81
2022/12/12 00:30:01;;;;;;;25.08;11.88;;;-0.70;69.50;;;;;;4939156;28;115045;-81
2022/12/12 00:32:29;;;;;;;24.67;11.50;;;-0.70;69.60;;;;;;4922967;28;115151;-80
2022/12/12 00:34:56;;;;;;;24.17;11.05;;;-0.70;69.70;;;;;;4927928;28;116131;-79
2022/12/12 00:37:23;;;;;;;23.80;10.80;;;-0.70;69.50;;;;;;4943966;28;114609;-81
2022/12/12 00:39:50;;;;;;;25.15;12.02;;;-0.70;69.40;;;;;;4913846;28;116250;-80
2022/12/12 00:42:18;;;;;;;25.77;12.05;;;-0.80;69.30;;;;;;4924088;28;114641;-80
2022/12/12 00:44:45;;;;;;;23.88;12.77;;;-0.80;69.40;;;;;;4939273;28;114572;-80
2022/12/12 00:47:12;;;;;;;29.88;12.65;;;-0.80;69.50;;;;;;4938655;28;114746;-80
2022/12/12 00:49:39;;;;;;;26.25;11.98;;;-0.80;69.40;;;;;;4922562;28;116809;-80
2022/12/12 00:52:06;;;;;;;28.77;12.45;;;-0.80;69.30;;;;;;4922771;28;114610;-80
2022/12/12 00:54:36;;;;;;;30.08;12.73;;;-0.80;69.20;;;;;;4924210;28;114606;-80
2022/12/12 00:57:06;;;;;;;25.65;12.38;;;-0.80;69.30;;;;;;4945446;28;114625;-80
2022/12/12 00:59:33;;;;;;;27.10;13.18;;;-0.80;69.40;;;;;;4927134;28;115012;-80
2022/12/12 01:02:01;;;;;;;28.40;11.75;;;-0.90;69.50;;;;;;4926702;28;117263;-80
2022/12/12 01:04:28;;;;;;;28.48;13.02;;;-0.80;69.50;;;;;;4927365;28;114423;-80
2022/12/12 01:06:55;;;;;;;30.25;13.25;;;-0.80;69.50;;;;;;4926868;28;114938;-80
2022/12/12 01:09:22;;;;;;;26.70;12.45;;;-0.80;69.40;;;;;;4926726;28;115034;-80
2022/12/12 01:11:49;;;;;;;30.77;13.90;;;-0.90;69.50;;;;;;4926868;28;114837;-80
2022/12/12 01:14:17;;;;;;;26.88;12.82;;;-0.90;69.50;;;;;;4927899;28;115824;-80
2022/12/12 01:16:44;;;;;;;29.65;13.18;;;-0.90;69.40;;;;;;4927587;28;114422;-79
2022/12/12 01:19:11;;;;;;;28.90;13.10;;;-0.80;69.50;;;;;;4925627;28;115184;-79
2022/12/12 01:21:39;;;;;;;32.63;13.23;;;-0.90;69.50;;;;;;4928043;28;117174;-79
2022/12/12 01:24:06;;;;;;;31.30;13.68;;;-0.90;69.30;;;;;;4929562;28;114759;-80
2022/12/12 01:26:33;;;;;;;26.60;11.93;;;-0.90;69.40;;;;;;4910178;28;115455;-79
2022/12/12 01:29:01;;;;;;;29.88;13.65;;;-0.90;69.60;;;;;;4925141;28;115684;-80
2022/12/12 01:31:28;;;;;;;32.30;13.73;;;-0.90;69.60;;;;;;4941155;28;115020;-81
2022/12/12 01:33:55;;;;;;;28.70;11.98;;;-0.90;69.50;;;;;;4904640;28;115356;-80
2022/12/12 01:36:22;;;;;;;27.10;13.32;;;-0.90;69.40;;;;;;4945077;28;114587;-80
2022/12/12 01:38:51;;;;;;;35.50;13.70;;;-0.90;69.40;;;;;;4909414;28;115172;-80
2022/12/12 01:41:19;;;;;;;28.95;13.90;;;-0.90;69.40;;;;;;4942021;28;115022;-80
2022/12/12 01:43:46;;;;;;;30.40;12.93;;;-0.90;69.40;;;;;;4913336;28;114689;-80
2022/12/12 01:46:42;;;;;;;30.75;14.68;;;-0.90;69.40;;;;;;4910795;28;114677;-80
2022/12/12 01:49:11;;;;;;;30.80;13.80;;;-0.90;69.20;;;;;;4927143;28;117331;-80
2022/12/12 01:51:39;;;;;;;33.58;14.27;;;-1.00;69.40;;;;;;4926460;28;115091;-80
2022/12/12 01:54:09;;;;;;;28.92;14.50;;;-0.90;69.50;;;;;;4943958;28;114649;-81
2022/12/12 01:56:38;;;;;;;33.92;13.75;;;-1.00;69.40;;;;;;4911251;28;115154;-81
2022/12/12 01:59:07;;;;;;;32.20;15.05;;;-1.00;69.60;;;;;;4902463;28;115259;-80
2022/12/12 02:01:34;;;;;;;30.65;13.68;;;-1.00;69.50;;;;;;4925180;28;114459;-80
2022/12/12 02:04:01;;;;;;;29.50;13.85;;;-0.90;69.50;;;;;;4940877;28;114574;-80
2022/12/12 02:06:29;;;;;;;31.20;14.77;;;-1.00;69.40;;;;;;4938695;28;114423;-79
2022/12/12 02:08:59;;;;;;;31.83;14.45;;;-1.10;69.60;;;;;;4941976;28;116082;-80
2022/12/12 02:11:28;;;;;;;31.35;14.52;;;-1.10;69.50;;;;;;4910358;28;114550;-80
2022/12/12 02:13:57;;;;;;;30.60;13.95;;;-1.00;69.50;;;;;;4923140;28;114668;-80
2022/12/12 02:17:24;;;;;;;34.47;13.02;;;-1.00;69.50;;;;;;4926001;28;114370;-80
2022/12/12 02:20:21;;;;;;;28.58;12.38;;;-1.00;69.60;;;;;;4926791;28;119023;-80
2022/12/12 02:23:41;;;;;;;26.77;13.95;;;-1.00;69.60;;;;;;4944466;28;114743;-80
2022/12/12 02:26:46;;;;;;;31.90;13.07;;;-1.00;69.60;;;;;;4945462;28;115871;-80
2022/12/12 02:29:36;;;;;;;27.53;13.00;;;-1.10;69.70;;;;;;4945826;28;114925;-80
2022/12/12 02:32:24;;;;;;;32.05;13.00;;;-1.00;69.80;;;;;;4928659;28;115215;-80
2022/12/12 02:35:24;;;;;;;29.42;13.55;;;-1.00;69.70;;;;;;4928155;28;114810;-80
2022/12/12 02:38:05;;;;;;;31.20;13.48;;;-1.00;69.80;;;;;;4946880;28;116501;-80
2022/12/12 02:41:30;;;;;;;27.35;12.88;;;-1.10;69.60;;;;;;4931864;28;115827;-80
2022/12/12 02:44:27;;;;;;;27.40;12.10;;;-1.00;69.50;;;;;;4945432;28;116851;-80
2022/12/12 02:47:29;;;;;;;25.38;11.63;;;-1.00;69.50;;;;;;4909669;28;114761;-80
2022/12/12 02:50:05;;;;;;;24.30;11.65;;;-1.10;69.40;;;;;;4909385;28;114505;-79
2022/12/12 02:52:33;;;;;;;24.80;11.57;;;-1.20;69.60;;;;;;4926521;28;114607;-79
2022/12/12 02:55:00;;;;;;;27.25;11.65;;;-1.20;69.70;;;;;;4925307;28;115395;-80
2022/12/12 02:57:27;;;;;;;30.58;13.27;;;-1.20;69.80;;;;;;4923426;28;114951;-80
2022/12/12 02:59:59;;;;;;;25.40;12.10;;;-1.20;69.80;;;;;;4939535;28;114482;-80
2022/12/12 03:02:41;;;;;;;27.92;12.40;;;-1.10;69.80;;;;;;4924865;28;114712;-81
2022/12/12 03:09:13;;;;;;;27.05;12.23;;;-1.20;69.70;;;;;;4944072;28;115853;-81
2022/12/12 03:12:07;;;;;;;27.33;11.23;;;-1.20;69.70;;;;;;4930075;28;114666;-81
2022/12/12 03:15:03;;;;;;;25.25;11.88;;;-1.20;69.60;;;;;;4917119;28;114773;-81
2022/12/12 03:17:47;;;;;;;25.52;11.93;;;-1.10;69.80;;;;;;4924763;28;115071;-81
2022/12/12 03:20:39;;;;;;;22.90;10.93;;;-1.10;69.60;;;;;;4935508;28;114876;-80
2022/12/12 03:23:21;;;;;;;27.70;12.70;;;-1.20;69.70;;;;;;4912293;28;114745;-81
2022/12/12 03:26:02;;;;;;;26.25;12.25;;;-1.10;69.60;;;;;;4924669;28;114979;-80
2022/12/12 03:28:56;;;;;;;24.40;11.65;;;-1.10;69.50;;;;;;4940359;28;116591;-80
2022/12/12 03:31:27;;;;;;;24.10;10.23;;;-1.10;69.70;;;;;;4935611;28;114847;-80
2022/12/12 03:34:04;;;;;;;29.23;11.95;;;-1.10;69.70;;;;;;4915824;28;114561;-80
2022/12/12 03:36:51;;;;;;;29.70;12.52;;;-1.10;69.70;;;;;;4897410;28;114374;-80
2022/12/12 03:39:48;;;;;;;22.75;10.55;;;-1.10;69.70;;;;;;4936576;28;115257;-80
2022/12/12 03:42:42;;;;;;;27.17;11.77;;;-1.00;69.60;;;;;;4938041;28;114937;-80
2022/12/12 03:45:43;;;;;;;25.02;12.50;;;-1.10;69.50;;;;;;4918947;28;114592;-81
2022/12/12 03:48:22;;;;;;;25.17;11.93;;;-1.10;69.50;;;;;;4945609;28;114387;-80
2022/12/12 03:51:11;;;;;;;22.23;10.05;;;-1.20;69.40;;;;;;4925412;28;117226;-80
2022/12/12 03:53:51;;;;;;;23.52;10.85;;;-1.10;69.30;;;;;;4929128;28;114677;-79
2022/12/12 03:57:03;;;;;;;28.10;12.85;;;-1.10;69.30;;;;;;4928690;28;114724;-79
2022/12/12 03:59:44;;;;;;;25.75;11.02;;;-1.10;69.30;;;;;;4946377;28;114343;-79
2022/12/12 04:02:31;;;;;;;28.33;11.77;;;-1.20;69.50;;;;;;4924806;28;116249;-79
2022/12/12 04:05:37;;;;;;;28.00;11.77;;;-1.20;69.30;;;;;;4927293;28;114552;-79
2022/12/12 04:08:12;;;;;;;23.60;10.77;;;-1.20;69.30;;;;;;4926015;28;116229;-78
2022/12/12 04:14:08;;;;;;;27.05;12.00;;;-1.20;69.60;;;;;;4896603;28;115122;-81
2022/12/12 04:16:39;;;;;;;24.75;11.10;;;-1.20;69.60;;;;;;4923954;28;114666;-80
2022/12/12 04:23:14;;;;;;;24.20;11.38;;;-1.20;69.50;;;;;;4908806;28;114684;-81
2022/12/12 04:25:03;;;;;;;26.60;11.18;;;-1.20;69.60;;;;;;4922719;28;115214;-80
2022/12/12 04:27:38;;;;;;;28.80;12.45;;;-1.20;69.70;;;;;;4941532;28;116848;-81
2022/12/12 04:30:07;;;;;;;24.67;11.68;;;-1.20;69.70;;;;;;4893406;28;114649;-80
2022/12/12 04:32:57;;;;;;;23.88;11.70;;;-1.20;69.70;;;;;;4925979;28;114475;-80
2022/12/12 04:35:38;;;;;;;22.83;10.85;;;-1.20;69.70;;;;;;4929617;28;115082;-80
2022/12/12 04:38:09;;;;;;;26.20;13.02;;;-1.20;69.80;;;;;;4913871;28;117084;-81
2022/12/12 04:40:42;;;;;;;27.05;13.13;;;-1.20;69.60;;;;;;4912609;28;114463;-80
2022/12/12 04:43:16;;;;;;;26.03;12.37;;;-1.20;69.60;;;;;;4896774;28;114334;-80
2022/12/12 04:45:57;;;;;;;31.85;12.73;;;-1.30;69.70;;;;;;4929918;28;115210;-80
2022/12/12 04:48:47;;;;;;;26.55;13.15;;;-1.30;69.90;;;;;;4925561;28;115250;-80
2022/12/12 04:51:23;;;;;;;;;;;-1.20;69.90;;;;;;4928991;28;115491;-81
2022/12/12 04:54:12;;;;;;;23.35;10.80;;;-1.30;70.00;;;;;;4910596;28;114455;-82
2022/12/12 04:56:39;;;;;;;26.90;12.65;;;-1.30;70.00;;;;;;4942154;28;115280;-80
2022/12/12 04:59:06;;;;;;;25.85;12.38;;;-1.30;69.90;;;;;;4929251;28;114702;-80
2022/12/12 05:02:01;;;;;;;26.45;12.52;;;-1.30;70.00;;;;;;4928184;28;114422;-79
2022/12/12 05:04:41;;;;;;;;;;;-1.20;69.90;;;;;;4944825;28;114675;-80
2022/12/12 05:07:21;;;;;;;23.33;11.52;;;-1.30;70.00;;;;;;4946431;28;115162;-80
2022/12/12 05:09:48;;;;;;;28.85;12.63;;;-1.30;70.00;;;;;;4927161;28;114645;-81
2022/12/12 05:12:16;;;;;;;25.40;12.52;;;-1.30;70.00;;;;;;4925160;28;115862;-80
2022/12/12 05:14:43;;;;;;;26.13;12.35;;;-1.30;70.00;;;;;;4929517;28;114594;-80
2022/12/12 05:17:13;;;;;;;26.15;12.27;;;-1.30;70.00;;;;;;4911076;28;115055;-80
2022/12/12 05:19:40;;;;;;;26.83;12.57;;;-1.20;70.00;;;;;;4942575;28;114590;-80
2022/12/12 05:22:07;;;;;;;29.50;13.32;;;-1.20;70.10;;;;;;4947162;28;114345;-80
2022/12/12 05:24:34;;;;;;;27.38;12.63;;;-1.30;70.30;;;;;;4928593;28;114576;-80
2022/12/12 05:27:04;;;;;;;29.55;13.93;;;-1.20;70.40;;;;;;4927884;28;115200;-80
2022/12/12 05:29:32;;;;;;;28.38;12.85;;;-1.20;70.30;;;;;;4926170;28;116324;-80
2022/12/12 05:32:00;;;;;;;26.10;13.20;;;-1.20;70.30;;;;;;4927538;28;114788;-80
2022/12/12 05:34:27;;;;;;;25.83;13.27;;;-1.20;70.40;;;;;;4928857;28;114578;-80
2022/12/12 05:36:55;;;;;;;25.65;13.20;;;-1.10;70.40;;;;;;4926477;28;115025;-80
2022/12/12 05:39:22;;;;;;;26.65;13.27;;;-1.10;70.30;;;;;;4941545;28;114754;-80
2022/12/12 05:41:53;;;;;;;26.65;12.55;;;-1.10;70.20;;;;;;4928949;28;114612;-80
2022/12/12 05:44:20;;;;;;;25.83;13.82;;;-1.00;70.10;;;;;;4926351;28;114523;-80
2022/12/12 05:46:47;;;;;;;27.13;12.68;;;-1.00;69.90;;;;;;4926088;28;115043;-81
2022/12/12 05:49:14;;;;;;;25.00;12.60;;;-1.10;69.80;;;;;;4927074;28;114726;-80
2022/12/12 05:51:41;;;;;;;26.40;12.98;;;-1.10;70.00;;;;;;4941851;28;114504;-80
2022/12/12 05:54:08;;;;;;;21.67;11.13;;;-1.10;70.10;;;;;;4941604;28;114737;-80
2022/12/12 05:56:37;;;;;;;24.15;12.45;;;-1.10;70.10;;;;;;4944897;28;115045;-80
2022/12/12 05:59:04;;;;;;;26.52;13.18;;;-1.10;70.00;;;;;;4928691;28;116997;-80
2022/12/12 06:01:38;;;;;;;27.02;12.50;;;-1.10;69.90;;;;;;4926392;28;114354;-80
2022/12/12 06:04:06;;;;;;;28.38;13.57;;;-1.10;70.00;;;;;;4928079;28;114765;-80
2022/12/12 06:06:33;;;;;;;24.33;12.35;;;-1.10;70.00;;;;;;4923769;28;115185;-81
2022/12/12 06:09:00;;;;;;;29.30;13.43;;;-1.10;69.90;;;;;;4940719;28;114573;-80
2022/12/12 06:11:28;;;;;;;23.63;12.07;;;-1.00;69.90;;;;;;4928128;28;114654;-80
2022/12/12 06:13:58;;;;;;;25.98;12.35;;;-1.10;69.90;;;;;;4928198;28;114385;-80
2022/12/12 06:16:25;;;;;;;24.25;12.20;;;-1.10;69.90;;;;;;4926199;28;115662;-79
2022/12/12 06:18:55;;;;;;;29.73;12.63;;;-1.00;69.90;;;;;;4930966;28;114621;-79
2022/12/12 06:21:22;;;;;;;22.17;11.70;;;-1.10;70.10;;;;;;4932353;28;115816;-80
2022/12/12 06:23:50;;;;;;;25.63;12.43;;;-1.10;70.00;;;;;;4932455;28;114344;-80
2022/12/12 06:26:18;;;;;;;27.30;12.70;;;-1.00;70.00;;;;;;4912843;28;117825;-80
2022/12/12 06:28:45;;;;;;;25.08;12.32;;;-1.10;70.00;;;;;;4931094;28;115291;-80
2022/12/12 06:31:13;;;;;;;24.00;11.43;;;-1.10;69.90;;;;;;4928855;28;114512;-80
2022/12/12 06:33:41;;;;;;;24.98;11.75;;;-1.10;69.80;;;;;;4933754;28;116199;-81
2022/12/12 06:36:15;;;;;;;21.70;11.10;;;-1.10;69.90;;;;;;4928646;28;115533;-80
2022/12/12 06:38:42;;;;;;;25.40;12.38;;;-1.10;70.00;;;;;;4929812;28;115210;-81
2022/12/12 06:41:12;;;;;;;23.08;12.48;;;-1.10;70.00;;;;;;4933314;28;114533;-80
2022/12/12 06:43:40;;;;;;;21.67;12.05;;;-1.10;69.90;;;;;;4928301;28;114581;-79
2022/12/12 06:46:15;;;;;;;25.13;12.40;;;-1.10;69.80;;;;;;4925072;28;116206;-80
2022/12/12 06:48:44;;;;;;;22.95;11.45;;;-1.10;69.60;;;;;;4923794;28;115965;-81
2022/12/12 06:51:32;;;;;;;22.27;12.13;;;-1.10;69.60;;;;;;4909950;28;114443;-80
2022/12/12 06:53:59;;;;;;;24.45;11.85;;;-1.10;69.60;;;;;;4928070;28;115732;-79
2022/12/12 06:56:26;;;;;;;23.13;11.63;;;-1.10;69.70;;;;;;4926918;28;118062;-80
2022/12/12 06:58:54;;;;;;;24.77;11.77;;;-1.10;69.60;;;;;;4931071;28;117303;-80
2022/12/12 07:01:22;;;;;;;22.42;11.05;;;-1.10;69.40;;;;;;4922375;28;116357;-80
2022/12/12 07:03:50;;;;;;;22.50;11.48;;;-1.10;69.40;;;;;;4915389;28;114650;-80
2022/12/12 07:06:20;;;;;;;22.58;11.05;;;-1.10;69.50;;;;;;4929799;28;115369;-79
2022/12/12 07:08:47;;;;;;;26.00;12.02;;;-1.10;69.40;;;;;;4929320;28;114891;-79
2022/12/12 07:11:18;;;;;;;27.52;12.98;;;-1.10;69.50;;;;;;4924822;28;116435;-80
2022/12/12 07:13:45;;;;;;;24.25;11.85;;;-1.10;69.50;;;;;;4931494;28;114635;-80
2022/12/12 07:16:12;;;;;;;27.30;13.68;;;-1.10;69.50;;;;;;4921532;28;115046;-80
2022/12/12 07:18:40;;;;;;;23.38;11.05;;;-1.00;69.60;;;;;;4921777;28;114971;-81
2022/12/12 07:21:09;;;;;;;25.23;13.35;;;-1.10;69.50;;;;;;4936566;28;114711;-80
2022/12/12 07:23:36;;;;;;;23.98;11.77;;;-1.00;69.50;;;;;;4927746;28;114481;-80
2022/12/12 07:26:05;;;;;;;22.42;11.45;;;-1.00;69.50;;;;;;4924212;28;115130;-81
2022/12/12 07:28:33;;;;;;;25.17;12.07;;;-1.00;69.50;;;;;;4923059;28;116077;-79
2022/12/12 07:31:05;;;;;;;30.33;13.65;;;-0.90;69.50;;;;;;4925853;28;118314;-80
2022/12/12 07:33:32;;;;;;;26.63;12.80;;;-0.90;69.90;;;;;;4926408;28;114439;-79
2022/12/12 07:36:13;;;;;;;25.65;11.95;;;-0.90;70.10;;;;;;4927190;28;115441;-80
2022/12/12 07:38:40;;;;;;;22.10;11.68;;;-0.80;70.00;;;;;;4892121;28;114826;-80
2022/12/12 07:41:14;;;;;;;24.25;12.20;;;-0.80;70.00;;;;;;4930230;28;114394;-80
2022/12/12 07:43:42;;;;;;;18.33;9.77;;;-0.80;69.80;;;;;;4909898;28;114668;-80
2022/12/12 07:46:14;;;;;;;23.45;11.68;;;-0.70;69.70;;;;;;4940324;28;115219;-80
2022/12/12 07:48:42;;;;;;;22.13;12.57;;;-0.70;69.60;;;;;;4926007;28;114571;-80
2022/12/12 07:51:09;;;;;;;24.02;12.23;;;-0.80;69.70;;;;;;4931833;28;114651;-79
2022/12/12 07:53:36;;;;;;;28.25;13.02;;;-0.70;69.80;;;;;;4940656;28;114535;-80
2022/12/12 07:56:08;;;;;;;23.58;12.70;;;-0.60;69.80;;;;;;4931376;28;115862;-80
2022/12/12 07:58:36;;;;;;;26.00;12.55;;;-0.60;69.60;;;;;;4908568;28;114693;-80
2022/12/12 08:01:15;;;;;;;24.88;12.40;;;-0.60;69.60;;;;;;4934565;28;114741;-80
2022/12/12 08:03:44;;;;;;;25.50;12.57;;;-0.50;69.40;;;;;;4908923;28;114655;-80
2022/12/12 08:06:11;;;;;;;25.42;12.88;;;-0.60;69.30;;;;;;4924632;28;115177;-80
2022/12/12 08:08:39;;;;;;;23.35;11.55;;;-0.50;69.20;;;;;;4911741;28;114678;-79
2022/12/12 08:11:15;;;;;;;22.58;11.15;;;-0.50;69.30;;;;;;4929123;28;114749;-79
2022/12/12 08:13:42;;;;;;;23.40;12.20;;;-0.50;69.00;;;;;;4940506;28;114496;-80
2022/12/12 08:16:16;;;;;;;25.25;11.90;;;-0.50;69.10;;;;;;4910187;28;115154;-80
2022/12/12 08:18:43;;;;;;;25.17;12.23;;;-0.50;69.00;;;;;;4912925;28;114635;-80
2022/12/12 08:21:12;;;;;;;27.60;13.35;;;-0.50;69.00;;;;;;4896394;28;114471;-79
2022/12/12 08:23:39;;;;;;;29.67;13.40;;;-0.50;69.00;;;;;;4937090;28;114709;-79
2022/12/12 08:26:13;;;;;;;24.02;12.60;;;-0.40;69.00;;;;;;4911691;28;117956;-80
2022/12/12 08:28:42;;;;;;;;;;;-0.40;68.80;;;;;;4934277;28;118053;-80
2022/12/12 08:31:17;;;;;;;25.63;12.85;;;-0.40;68.80;;;;;;4946118;28;114542;-79
2022/12/12 08:33:49;;;;;;;25.90;12.65;;;-0.40;68.80;;;;;;4926792;28;114579;-81
2022/12/12 08:36:22;;;;;;;25.13;12.95;;;-0.40;68.60;;;;;;4926042;28;115088;-80
2022/12/12 08:38:49;;;;;;;27.08;14.18;;;-0.40;68.60;;;;;;4913033;28;117176;-79
2022/12/12 08:41:16;;;;;;;28.90;13.93;;;-0.40;68.80;;;;;;4930363;28;114284;-80
2022/12/12 08:43:44;;;;;;;23.92;11.80;;;-0.40;68.90;;;;;;4943017;28;114422;-80
2022/12/12 08:46:12;;;;;;;27.50;12.95;;;-0.40;68.70;;;;;;4931328;28;115054;-81
2022/12/12 08:48:47;;;;;;;24.60;12.43;;;-0.50;68.40;;;;;;4928477;28;114623;-79
2022/12/12 08:51:15;;;;;;;26.90;14.77;;;-0.50;68.30;;;;;;4928071;28;114619;-81
2022/12/12 08:53:44;;;;;;;33.35;16.77;;;-0.60;68.30;;;;;;4929575;28;114436;-81
2022/12/12 08:56:12;;;;;;;30.55;15.40;;;-0.60;68.50;;;;;;4928432;28;117144;-81
2022/12/12 08:58:39;;;;;;;25.42;14.32;;;-0.60;68.50;;;;;;4940041;28;114616;-81
2022/12/12 09:01:10;;;;;;;24.90;12.82;;;-0.60;68.50;;;;;;4946190;28;114235;-82
2022/12/12 09:03:38;;;;;;;24.88;12.10;;;-0.50;68.50;;;;;;4943918;28;114502;-80
2022/12/12 09:06:06;;;;;;;25.67;12.63;;;-0.50;68.40;;;;;;4948609;28;115013;-80
2022/12/12 09:08:34;;;;;;;31.67;15.05;;;-0.50;68.50;;;;;;4945277;28;114757;-80
2022/12/12 09:11:01;;;;;;;27.75;13.02;;;-0.50;68.40;;;;;;4929480;28;114430;-81
2022/12/12 09:13:29;;;;;;;29.10;14.23;;;-0.50;68.40;;;;;;4926026;28;114538;-80
2022/12/12 09:15:56;;;;;;;29.42;12.90;;;-0.50;68.30;;;;;;4910242;28;116861;-79
2022/12/12 09:18:23;;;;;;;26.02;12.88;;;-0.50;68.40;;;;;;4927588;28;114713;-80
2022/12/12 09:20:57;;;;;;;25.98;12.02;;;-0.50;68.60;;;;;;4929151;28;114531;-80
2022/12/12 09:23:25;;;;;;;25.17;12.55;;;-0.40;68.50;;;;;;4928278;28;114691;-80
2022/12/12 09:25:52;;;;;;;23.55;12.32;;;-0.40;68.50;;;;;;4917359;28;117518;-80
2022/12/12 09:28:21;;;;;;;28.33;14.45;;;-0.40;68.60;;;;;;4931959;28;115358;-80
2022/12/12 09:30:48;;;;;;;28.83;13.88;;;-0.40;68.50;;;;;;4930824;28;114393;-80
2022/12/12 09:33:16;;;;;;;25.90;13.07;;;-0.40;68.40;;;;;;4926135;28;114477;-80
2022/12/12 09:35:43;;;;;;;22.50;12.40;;;-0.40;68.50;;;;;;4928609;28;116998;-80
2022/12/12 09:38:11;;;;;;;23.50;11.52;;;-0.40;68.50;;;;;;4933556;28;115085;-80
2022/12/12 09:41:12;;;;;;;28.55;13.88;;;-0.40;68.50;;;;;;4928029;28;114904;-80
2022/12/12 09:43:53;;;;;;;22.88;11.88;;;-0.30;68.40;;;;;;4924158;28;114500;-81
2022/12/12 09:46:49;;;;;;;23.65;11.30;;;-0.30;68.30;;;;;;4927612;28;115087;-80
2022/12/12 09:49:55;;;;;;;27.08;12.70;;;-0.30;68.40;;;;;;4944366;28;114654;-80
2022/12/12 09:52:34;;;;;;;25.80;12.23;;;-0.30;68.40;;;;;;4928760;28;114517;-80
2022/12/12 09:55:19;;;;;;;26.13;12.30;;;-0.30;68.40;;;;;;4928495;28;114353;-81
2022/12/12 09:58:04;;;;;;;25.85;11.93;;;-0.30;68.30;;;;;;4927885;28;115165;-81
2022/12/12 10:00:33;;;;;;;25.88;12.90;;;-0.20;68.20;;;;;;4911793;28;115902;-82
2022/12/12 10:03:25;;;;;;;23.90;11.70;;;-0.30;68.30;;;;;;4940675;28;116056;-81
2022/12/12 10:06:05;;;;;;;26.83;13.68;;;-0.20;68.10;;;;;;4933444;28;115718;-82
2022/12/12 10:09:23;;;;;;;23.90;12.00;;;-0.30;68.10;;;;;;4900251;28;115107;-81
2022/12/12 10:11:50;;;;;;;24.17;10.60;;;-0.30;68.20;;;;;;4913230;28;117688;-80
2022/12/12 10:14:26;;;;;;;24.77;12.40;;;-0.30;68.20;;;;;;4911836;28;114548;-81
2022/12/12 10:16:54;;;;;;;23.48;12.68;;;-0.30;68.20;;;;;;4926076;28;114428;-80
2022/12/12 10:19:28;;;;;;;25.25;12.88;;;-0.40;68.20;;;;;;4926270;28;115022;-80
2022/12/12 10:22:03;;;;;;;22.15;10.95;;;-0.30;68.30;;;;;;4939225;28;114741;-81
2022/12/12 10:24:43;;;;;;;22.90;12.00;;;-0.30;68.50;;;;;;4914875;28;114476;-81
2022/12/12 10:27:12;;;;;;;23.77;11.57;;;-0.30;68.40;;;;;;4930463;28;116480;-81
2022/12/12 10:29:45;;;;;;;21.25;10.65;;;-0.30;68.40;;;;;;4928895;28;115451;-82
2022/12/12 10:32:50;;;;;;;23.27;12.35;;;-0.20;68.40;;;;;;4892406;28;115117;-81
2022/12/12 10:35:31;;;;;;;24.25;12.32;;;-0.20;68.30;;;;;;4958605;28;114404;-81
2022/12/12 10:38:26;;;;;;;23.25;10.23;;;-0.20;68.20;;;;;;4926826;28;114615;-81
2022/12/12 10:41:06;;;;;;;22.70;11.20;;;-0.10;68.20;;;;;;4929652;28;115111;-81
2022/12/12 10:43:45;;;;;;;22.45;10.70;;;-0.20;68.00;;;;;;4926246;28;115323;-80
2022/12/12 10:46:21;;;;;;;26.23;12.18;;;-0.20;68.10;;;;;;4894732;28;116122;-80
2022/12/12 10:48:49;;;;;;;23.42;12.52;;;-0.20;68.20;;;;;;4941697;28;114503;-80
2022/12/12 10:51:17;;;;;;;23.92;11.48;;;-0.20;68.10;;;;;;4939306;28;116235;-80
2022/12/12 10:53:45;;;;;;;23.35;12.05;;;-0.20;68.00;;;;;;4944736;28;114819;-80
2022/12/12 10:56:24;;;;;;;21.48;11.68;;;-0.20;68.00;;;;;;4929956;28;114413;-80
2022/12/12 10:58:53;;;;;;;24.38;11.95;;;-0.20;68.10;;;;;;4941927;28;114628;-80
2022/12/12 11:01:25;;;;;;;25.63;12.45;;;-0.20;68.10;;;;;;4926510;28;115026;-80
2022/12/12 11:04:13;;;;;;;23.40;11.30;;;-0.20;68.10;;;;;;4928264;28;116452;-80
2022/12/12 11:06:46;;;;;;;24.80;12.00;;;-0.30;68.00;;;;;;4937520;28;114374;-80
2022/12/12 11:09:24;;;;;;;27.63;13.15;;;-0.30;68.00;;;;;;4920595;28;114913;-81
2022/12/12 11:12:15;;;;;;;23.63;11.15;;;-0.30;68.20;;;;;;4928188;28;116964;-80
2022/12/12 11:14:50;;;;;;;22.88;12.38;;;-0.30;68.10;;;;;;4921149;28;114586;-80
2022/12/12 11:17:26;;;;;;;23.10;11.43;;;-0.30;68.10;;;;;;4921207;28;114540;-81
2022/12/12 11:19:55;;;;;;;24.10;11.75;;;-0.30;68.10;;;;;;4926578;28;114575;-81
2022/12/12 11:22:22;;;;;;;24.02;12.75;;;-0.30;68.10;;;;;;4936229;28;115420;-81
2022/12/12 11:24:53;;;;;;;21.92;11.38;;;-0.30;68.00;;;;;;4925976;28;116058;-80
2022/12/12 11:27:29;;;;;;;24.77;11.98;;;-0.20;68.10;;;;;;4929525;28;116101;-80
2022/12/12 11:30:22;;;;;;;24.63;13.35;;;-0.20;68.10;;;;;;4939898;28;114471;-81
2022/12/12 11:32:53;;;;;;;28.33;13.60;;;-0.10;68.10;;;;;;4926421;28;114996;-81
2022/12/12 11:35:27;;;;;;;24.38;11.43;;;-0.10;68.10;;;;;;4924682;28;114643;-81
2022/12/12 11:37:59;;;;;;;21.30;10.93;;;-0.10;68.00;;;;;;4927328;28;114270;-81
2022/12/12 11:40:29;;;;;;;22.60;12.27;;;-0.10;67.90;;;;;;4927212;28;114576;-80
2022/12/12 11:43:23;;;;;;;23.05;12.25;;;-0.10;68.00;;;;;;4909755;28;115071;-80
2022/12/12 11:46:15;;;;;;;25.20;12.52;;;-0.20;68.00;;;;;;4920759;28;114854;-80
2022/12/12 11:48:51;;;;;;;25.27;11.57;;;-0.10;68.10;;;;;;4942479;28;114463;-81
2022/12/12 11:51:42;;;;;;;21.90;10.93;;;-0.10;68.10;;;;;;4945256;28;114437;-81
2022/12/12 11:54:18;;;;;;;23.08;11.75;;;-0.10;68.10;;;;;;4927305;28;116469;-81
2022/12/12 11:57:27;;;;;;;23.73;12.43;;;-0.10;68.20;;;;;;4940355;28;114660;-81
2022/12/12 12:00:04;;;;;;;23.52;12.13;;;0.00;68.00;;;;;;4926304;28;114659;-81
2022/12/12 12:03:46;;;;;;;25.00;12.40;;;-0.10;67.70;;;;;;4931059;28;114575;-81
2022/12/12 12:06:54;;;;;;;22.70;10.98;;;-0.10;67.80;;;;;;4892352;28;115120;-80
2022/12/12 12:09:30;;;;;;;20.73;10.98;;;-0.20;67.90;;;;;;4925254;28;115088;-80
2022/12/12 12:12:14;;;;;;;25.48;12.82;;;-0.30;67.90;;;;;;4926554;28;114377;-81
2022/12/12 12:15:06;;;;;;;20.63;9.07;;;-0.20;68.00;;;;;;4924954;28;114425;-81
2022/12/12 12:17:36;;;;;;;23.98;12.00;;;-0.30;68.10;;;;;;4931761;28;115017;-80
2022/12/12 12:20:04;;;;;;;24.05;11.73;;;-0.30;67.90;;;;;;4944282;28;115143;-80
2022/12/12 12:22:40;;;;;;;23.65;11.80;;;-0.20;67.90;;;;;;4938436;28;114664;-80
2022/12/12 12:25:46;;;;;;;23.63;11.35;;;-0.20;68.00;;;;;;4940950;28;115797;-81
2022/12/12 12:28:54;;;;;;;22.58;11.23;;;-0.20;67.90;;;;;;4941486;28;115352;-81
2022/12/12 12:32:09;;;;;;;23.70;12.30;;;-0.20;67.90;;;;;;4927433;28;115549;-80
2022/12/12 12:35:03;;;;;;;22.63;11.00;;;-0.30;67.90;;;;;;4914855;28;114640;-81
2022/12/12 12:38:12;;;;;;;25.55;12.65;;;-0.30;67.90;;;;;;4929520;28;114555;-81
2022/12/12 12:41:00;;;;;;;25.42;12.50;;;-0.30;68.10;;;;;;4933333;28;115287;-79
2022/12/12 12:43:37;;;;;;;27.23;12.25;;;-0.30;68.10;;;;;;4925864;28;114904;-80
2022/12/12 12:46:13;;;;;;;21.25;10.75;;;-0.30;68.00;;;;;;4911827;28;114452;-79
2022/12/12 12:48:48;;;;;;;24.20;12.00;;;-0.30;68.10;;;;;;4914280;28;116470;-80
2022/12/12 12:51:23;;;;;;;24.13;12.32;;;-0.20;68.10;;;;;;4915185;28;115072;-81
2022/12/12 12:54:18;;;;;;;23.52;12.48;;;-0.20;68.00;;;;;;4927528;28;114856;-81
2022/12/12 12:56:54;;;;;;;;;;;-0.20;68.10;;;;;;4925608;28;115613;-81
2022/12/12 12:59:28;;;;;;;24.27;11.98;;;-0.30;68.20;;;;;;4912928;28;115432;-81
2022/12/12 13:01:56;;;;;;;25.90;12.63;;;-0.30;68.20;;;;;;4900892;28;115130;-81
2022/12/12 13:04:58;;;;;;;28.25;13.73;;;-0.30;68.20;;;;;;4929937;28;115992;-81
2022/12/12 13:07:40;;;;;;;24.73;12.30;;;-0.30;68.50;;;;;;4919189;28;118370;-80
2022/12/12 13:10:21;;;;;;;25.88;12.60;;;-0.30;68.60;;;;;;4929962;28;114575;-81